createdAt,value
2022-09-30T00:01:02.896Z,2.82
2022-09-30T00:03:30.286Z,2.84
2022-09-30T00:05:58.636Z,2.85
2022-09-30T00:08:26.160Z,2.84
2022-09-30T00:11:04.448Z,2.78
2022-09-30T00:13:32.693Z,2.74
2022-09-30T00:16:02.196Z,2.74
2022-09-30T00:18:30.062Z,2.69
2022-09-30T00:20:57.904Z,2.67
2022-09-30T00:23:25.335Z,2.62
2022-09-30T00:25:58.990Z,2.55
2022-09-30T00:28:26.981Z,2.55
2022-09-30T00:30:54.894Z,2.58
2022-09-30T00:33:23.629Z,2.57
2022-09-30T00:35:51.050Z,2.47
2022-09-30T00:38:18.458Z,2.52
2022-09-30T00:40:46.420Z,2.46
2022-09-30T00:43:16.416Z,2.36
2022-09-30T00:45:50.436Z,2.22
2022-09-30T00:48:21.871Z,2.25
2022-09-30T00:50:55.371Z,2.27
2022-09-30T00:53:26.241Z,2.28
2022-09-30T00:55:58.735Z,2.19
2022-09-30T00:58:31.648Z,2.25
2022-09-30T01:01:01.488Z,2.11
2022-09-30T01:03:31.938Z,2.10
2022-09-30T01:06:00.981Z,2.06
2022-09-30T01:08:29.456Z,2.03
2022-09-30T01:10:56.887Z,1.98
2022-09-30T01:13:27.346Z,1.92
2022-09-30T01:16:07.246Z,1.90
2022-09-30T01:18:49.803Z,1.87
2022-09-30T01:21:46.985Z,1.81
2022-09-30T01:24:39.948Z,1.87
2022-09-30T01:27:42.919Z,2.09
2022-09-30T01:30:15.894Z,2.48
2022-09-30T01:33:18.442Z,2.65
2022-09-30T01:36:02.204Z,2.31
2022-09-30T01:38:31.844Z,2.01
2022-09-30T01:41:07.571Z,1.83
2022-09-30T01:43:46.031Z,1.55
2022-09-30T01:46:24.054Z,1.56
2022-09-30T01:48:59.793Z,1.42
2022-09-30T01:51:36.115Z,1.36
2022-09-30T01:54:09.380Z,1.30
2022-09-30T01:56:42.346Z,1.40
2022-09-30T01:59:15.454Z,1.46
2022-09-30T02:01:48.782Z,1.59
2022-09-30T02:04:22.048Z,1.43
2022-09-30T02:06:53.368Z,1.26
2022-09-30T02:09:26.554Z,1.26
2022-09-30T02:11:56.914Z,1.20
2022-09-30T02:14:29.410Z,1.22
2022-09-30T02:17:03.065Z,1.28
2022-09-30T02:19:38.176Z,1.33
2022-09-30T02:22:11.605Z,1.40
2022-09-30T02:24:40.576Z,1.29
2022-09-30T02:27:14.180Z,1.16
2022-09-30T02:29:49.590Z,0.91
2022-09-30T02:32:21.697Z,0.93
2022-09-30T02:34:55.492Z,1.06
2022-09-30T02:37:28.655Z,1.12
2022-09-30T02:40:03.340Z,1.01
2022-09-30T02:42:32.621Z,1.07
2022-09-30T02:45:03.361Z,0.99
2022-09-30T02:47:40.792Z,0.91
2022-09-30T02:50:17.125Z,0.92
2022-09-30T02:52:57.592Z,0.87
2022-09-30T02:55:31.979Z,0.72
2022-09-30T02:58:05.458Z,0.81
2022-09-30T03:00:33.150Z,0.80
2022-09-30T03:03:06.948Z,0.64
2022-09-30T03:05:36.083Z,0.67
2022-09-30T03:08:03.578Z,0.72
2022-09-30T03:10:31.968Z,0.85
2022-09-30T03:13:20.854Z,0.89
2022-09-30T03:16:03.899Z,0.90
2022-09-30T03:18:55.198Z,0.78
2022-09-30T03:21:38.530Z,0.67
2022-09-30T03:24:34.858Z,0.60
2022-09-30T03:27:14.619Z,0.61
2022-09-30T03:29:50.203Z,0.64
2022-09-30T03:32:31.544Z,0.71
2022-09-30T03:35:09.994Z,0.80
2022-09-30T03:37:47.032Z,0.78
2022-09-30T03:40:21.696Z,0.73
2022-09-30T03:42:54.103Z,0.71
2022-09-30T03:45:26.866Z,0.57
2022-09-30T03:47:59.903Z,0.61
2022-09-30T03:50:29.858Z,0.64
2022-09-30T03:52:58.844Z,0.69
2022-09-30T03:55:27.739Z,0.68
2022-09-30T03:57:55.219Z,0.64
2022-09-30T04:00:22.636Z,0.55
2022-09-30T04:02:52.640Z,0.53
2022-09-30T04:05:22.068Z,0.51
2022-09-30T04:07:49.457Z,0.49
2022-09-30T04:10:18.181Z,0.47
2022-09-30T04:12:45.538Z,0.41
2022-09-30T04:15:12.972Z,0.47
2022-09-30T04:17:40.353Z,0.45
2022-09-30T04:20:08.151Z,0.49
2022-09-30T04:22:35.537Z,0.46
2022-09-30T04:25:02.939Z,0.46
2022-09-30T04:27:31.716Z,0.52
2022-09-30T04:29:59.104Z,0.56
2022-09-30T04:32:26.553Z,0.61
2022-09-30T04:34:54.075Z,0.63
2022-09-30T04:37:21.830Z,0.57
2022-09-30T04:39:49.221Z,0.33
2022-09-30T04:42:17.248Z,0.32
2022-09-30T04:44:45.947Z,0.31
2022-09-30T04:47:14.968Z,0.22
2022-09-30T04:49:42.408Z,0.32
2022-09-30T04:52:09.767Z,0.33
2022-09-30T04:54:37.254Z,0.32
2022-09-30T04:57:04.953Z,0.33
2022-09-30T04:59:33.667Z,0.31
2022-09-30T05:02:02.822Z,0.30
2022-09-30T05:04:33.366Z,0.27
2022-09-30T05:07:01.710Z,0.25
2022-09-30T05:09:29.143Z,0.22
2022-09-30T05:11:56.538Z,0.27
2022-09-30T05:14:23.918Z,0.29
2022-09-30T05:16:51.308Z,0.17
2022-09-30T05:19:20.311Z,0.09
2022-09-30T05:21:47.930Z,0.07
2022-09-30T05:24:15.852Z,0.11
2022-09-30T05:26:43.238Z,0.15
2022-09-30T05:29:11.273Z,0.23
2022-09-30T05:31:38.999Z,0.30
2022-09-30T05:34:06.468Z,0.36
2022-09-30T05:36:35.326Z,0.41
2022-09-30T05:39:02.745Z,0.45
2022-09-30T05:41:30.146Z,0.41
2022-09-30T05:44:00.991Z,0.42
2022-09-30T05:46:29.072Z,0.20
2022-09-30T05:48:56.552Z,0.30
2022-09-30T05:51:24.137Z,0.33
2022-09-30T05:53:52.972Z,0.46
2022-09-30T05:56:20.410Z,0.61
2022-09-30T05:58:47.790Z,0.90
2022-09-30T06:01:16.668Z,1.05
2022-09-30T06:03:45.492Z,1.10
2022-09-30T06:06:13.861Z,1.09
2022-09-30T06:08:41.836Z,1.23
2022-09-30T06:11:12.848Z,1.36
2022-09-30T06:13:41.400Z,1.47
2022-09-30T06:16:10.485Z,1.66
2022-09-30T06:18:41.360Z,1.76
2022-09-30T06:21:11.269Z,2.01
2022-09-30T06:23:38.799Z,2.16
2022-09-30T06:26:08.276Z,2.25
2022-09-30T06:28:37.020Z,2.44
2022-09-30T06:31:05.179Z,2.49
2022-09-30T06:33:33.179Z,2.50
2022-09-30T06:36:04.141Z,2.67
2022-09-30T06:38:32.412Z,2.59
2022-09-30T06:41:00.786Z,2.70
2022-09-30T06:43:28.743Z,2.76
2022-09-30T06:46:10.609Z,2.87
2022-09-30T06:48:42.569Z,3.09
2022-09-30T06:51:10.807Z,3.29
2022-09-30T06:53:39.107Z,3.34
2022-09-30T06:56:07.375Z,3.37
2022-09-30T06:58:35.222Z,3.73
2022-09-30T07:01:06.468Z,3.80
2022-09-30T07:03:35.963Z,3.86
2022-09-30T07:06:06.493Z,4.10
2022-09-30T07:08:35.716Z,4.29
2022-09-30T07:11:05.392Z,4.48
2022-09-30T07:13:34.161Z,4.57
2022-09-30T07:16:01.847Z,4.80
2022-09-30T07:18:30.589Z,4.90
2022-09-30T07:20:58.015Z,5.15
2022-09-30T07:23:27.332Z,5.44
2022-09-30T07:25:56.714Z,5.60
2022-09-30T07:28:27.722Z,5.79
2022-09-30T07:31:19.852Z,5.88
2022-09-30T07:33:46.060Z,6.07
2022-09-30T07:36:18.404Z,6.23
2022-09-30T07:38:49.750Z,6.43
2022-09-30T07:41:21.714Z,6.59
2022-09-30T07:43:50.706Z,6.76
2022-09-30T07:46:21.061Z,6.90
2022-09-30T07:48:51.675Z,7.18
2022-09-30T07:51:21.875Z,7.38
2022-09-30T07:53:51.500Z,7.76
2022-09-30T07:56:21.764Z,8.08
2022-09-30T07:58:49.814Z,8.49
2022-09-30T08:01:17.364Z,8.60
2022-09-30T08:03:45.428Z,8.78
2022-09-30T08:06:17.671Z,8.79
2022-09-30T08:08:46.034Z,8.88
2022-09-30T08:11:15.049Z,8.92
2022-09-30T08:13:42.688Z,9.01
2022-09-30T08:16:10.203Z,9.07
2022-09-30T08:18:37.669Z,9.15
2022-09-30T08:21:06.719Z,9.11
2022-09-30T08:23:35.504Z,9.21
2022-09-30T08:26:04.551Z,9.29
2022-09-30T08:28:32.301Z,9.44
2022-09-30T08:31:06.939Z,9.33
2022-09-30T08:33:34.842Z,9.60
2022-09-30T08:36:04.229Z,9.57
2022-09-30T08:38:31.972Z,9.72
2022-09-30T08:41:12.677Z,9.79
2022-09-30T08:43:53.110Z,9.93
2022-09-30T08:46:35.164Z,10.04
2022-09-30T08:49:14.565Z,10.25
2022-09-30T08:51:46.407Z,10.33
2022-09-30T08:54:16.473Z,10.48
2022-09-30T08:56:47.300Z,10.47
2022-09-30T08:59:28.846Z,10.53
2022-09-30T09:02:02.009Z,10.59
2022-09-30T09:04:29.744Z,10.54
2022-09-30T09:07:02.946Z,10.76
2022-09-30T09:09:51.734Z,11.01
2022-09-30T09:12:33.087Z,11.01
2022-09-30T09:15:13.544Z,11.00
2022-09-30T09:18:21.959Z,11.07
2022-09-30T09:20:54.597Z,11.03
2022-09-30T09:23:22.620Z,11.16
2022-09-30T09:25:52.958Z,11.25
2022-09-30T09:28:33.718Z,11.31
2022-09-30T09:31:01.839Z,11.39
2022-09-30T09:33:31.641Z,11.41
2022-09-30T09:36:11.368Z,11.32
2022-09-30T09:38:56.096Z,11.34
2022-09-30T09:41:32.407Z,11.32
2022-09-30T09:44:08.898Z,11.32
2022-09-30T09:46:45.141Z,11.39
2022-09-30T09:49:34.793Z,11.33
2022-09-30T09:52:33.711Z,11.34
2022-09-30T09:55:01.106Z,11.45
2022-09-30T09:57:32.147Z,11.48
2022-09-30T10:00:22.937Z,11.44
2022-09-30T10:03:01.399Z,11.53
2022-09-30T10:05:32.192Z,11.48
2022-09-30T10:08:11.348Z,11.53
2022-09-30T10:10:48.629Z,11.73
2022-09-30T10:13:22.103Z,11.76
2022-09-30T10:15:53.245Z,11.76
2022-09-30T10:18:27.361Z,11.82
2022-09-30T10:20:58.054Z,11.75
2022-09-30T10:23:31.256Z,11.75
2022-09-30T10:26:03.492Z,11.71
2022-09-30T10:28:33.121Z,11.82
2022-09-30T10:31:06.636Z,11.92
2022-09-30T10:33:42.767Z,11.69
2022-09-30T10:36:14.798Z,11.51
2022-09-30T10:39:03.972Z,11.45
2022-09-30T10:41:36.088Z,11.64
2022-09-30T10:44:07.053Z,11.83
2022-09-30T10:46:38.981Z,11.85
2022-09-30T10:49:11.749Z,11.94
2022-09-30T10:51:40.094Z,11.85
2022-09-30T10:54:07.807Z,11.63
2022-09-30T10:56:38.758Z,11.65
2022-09-30T10:59:16.407Z,11.76
2022-09-30T11:01:52.536Z,12.06
2022-09-30T11:04:29.740Z,12.41
2022-09-30T11:07:03.073Z,12.69
2022-09-30T11:09:36.582Z,12.85
2022-09-30T11:12:14.829Z,12.76
2022-09-30T11:14:48.171Z,12.70
2022-09-30T11:17:28.923Z,12.43
2022-09-30T11:20:08.656Z,12.13
2022-09-30T11:22:47.352Z,12.20
2022-09-30T11:25:16.264Z,12.41
2022-09-30T11:28:01.416Z,12.64
2022-09-30T11:30:37.745Z,12.64
2022-09-30T11:33:20.605Z,12.45
2022-09-30T11:35:55.946Z,12.39
2022-09-30T11:38:39.912Z,12.30
2022-09-30T11:41:12.281Z,12.13
2022-09-30T11:43:50.315Z,12.10
2022-09-30T11:46:29.576Z,12.36
2022-09-30T11:49:14.264Z,12.66
2022-09-30T11:51:51.040Z,12.84
2022-09-30T11:54:34.728Z,13.04
2022-09-30T11:57:09.555Z,13.12
2022-09-30T11:59:42.794Z,13.06
2022-09-30T12:02:27.484Z,12.82
2022-09-30T12:05:00.544Z,12.78
2022-09-30T12:07:39.120Z,12.42
2022-09-30T12:10:15.595Z,12.52
2022-09-30T12:12:57.314Z,12.77
2022-09-30T12:15:26.561Z,13.05
2022-09-30T12:17:59.926Z,13.03
2022-09-30T12:20:31.508Z,13.18
2022-09-30T12:23:06.407Z,13.33
2022-09-30T12:25:40.281Z,13.31
2022-09-30T12:28:33.203Z,13.34
2022-09-30T12:31:11.852Z,13.30
2022-09-30T12:33:58.585Z,13.33
2022-09-30T12:36:48.788Z,13.41
2022-09-30T12:39:40.831Z,13.45
2022-09-30T12:42:35.111Z,13.44
2022-09-30T12:45:20.720Z,13.52
2022-09-30T12:47:51.187Z,13.48
2022-09-30T12:50:22.602Z,13.26
2022-09-30T12:52:50.823Z,13.18
2022-09-30T12:55:27.946Z,13.22
2022-09-30T12:57:57.048Z,13.22
2022-09-30T13:00:29.453Z,13.41
2022-09-30T13:03:03.325Z,13.56
2022-09-30T13:05:59.136Z,13.65
2022-09-30T13:08:45.247Z,13.54
2022-09-30T13:11:36.124Z,13.62
2022-09-30T13:14:33.055Z,13.82
2022-09-30T13:17:27.206Z,13.77
2022-09-30T13:19:57.241Z,13.69
2022-09-30T13:23:00.479Z,13.83
2022-09-30T13:25:28.460Z,13.98
2022-09-30T13:28:29.475Z,14.02
2022-09-30T13:31:15.500Z,13.97
2022-09-30T13:33:46.806Z,14.07
2022-09-30T13:36:28.495Z,14.07
2022-09-30T13:39:19.450Z,14.07
2022-09-30T13:41:56.138Z,14.06
2022-09-30T13:44:32.236Z,14.04
2022-09-30T13:47:06.902Z,14.20
2022-09-30T13:49:43.269Z,14.02
2022-09-30T13:52:22.100Z,14.08
2022-09-30T13:54:51.476Z,14.03
2022-09-30T13:57:24.195Z,13.71
2022-09-30T14:00:05.772Z,13.92
2022-09-30T14:03:03.767Z,14.73
2022-09-30T14:05:43.477Z,15.45
2022-09-30T14:08:32.124Z,15.38
2022-09-30T14:11:14.900Z,15.57
2022-09-30T14:13:51.118Z,16.15
2022-09-30T14:16:54.355Z,16.42
2022-09-30T14:19:37.648Z,16.23
2022-09-30T14:22:09.162Z,16.02
2022-09-30T14:24:38.251Z,16.20
2022-09-30T14:27:21.535Z,16.46
2022-09-30T14:29:59.993Z,16.46
2022-09-30T14:32:30.584Z,16.80
2022-09-30T14:34:59.526Z,17.02
2022-09-30T14:37:32.078Z,16.98
2022-09-30T14:40:01.242Z,17.18
2022-09-30T14:42:32.824Z,16.60
2022-09-30T14:45:04.547Z,16.71
2022-09-30T14:47:34.413Z,16.72
2022-09-30T14:50:03.668Z,16.70
2022-09-30T14:52:43.725Z,16.86
2022-09-30T14:55:23.391Z,16.77
2022-09-30T14:57:51.112Z,16.55
2022-09-30T15:00:31.442Z,16.64
2022-09-30T15:03:00.691Z,16.91
2022-09-30T15:05:29.179Z,16.37
2022-09-30T15:07:57.917Z,16.29
2022-09-30T15:10:26.146Z,16.29
2022-09-30T15:12:55.952Z,16.30
2022-09-30T15:15:35.961Z,16.07
2022-09-30T15:18:32.898Z,16.50
2022-09-30T15:21:11.363Z,16.76
2022-09-30T15:23:43.121Z,16.82
2022-09-30T15:26:12.630Z,17.16
2022-09-30T15:28:40.338Z,16.57
2022-09-30T15:31:09.226Z,16.31
2022-09-30T15:33:36.744Z,16.42
2022-09-30T15:36:14.356Z,16.19
2022-09-30T15:38:49.156Z,16.16
2022-09-30T15:41:17.357Z,16.15
2022-09-30T15:43:50.216Z,16.25
2022-09-30T15:46:26.004Z,16.11
2022-09-30T15:48:54.250Z,15.86
2022-09-30T15:51:42.309Z,15.78
2022-09-30T15:54:32.569Z,15.81
2022-09-30T15:57:03.118Z,15.83
2022-09-30T15:59:57.662Z,16.02
2022-09-30T16:02:25.490Z,15.80
2022-09-30T16:04:53.955Z,15.56
2022-09-30T16:07:26.176Z,15.52
2022-09-30T16:09:56.584Z,15.47
2022-09-30T16:12:28.066Z,15.28
2022-09-30T16:14:57.818Z,15.39
2022-09-30T16:17:27.644Z,15.44
2022-09-30T16:19:58.373Z,15.65
2022-09-30T16:22:35.961Z,14.97
2022-09-30T16:25:17.694Z,13.87
2022-09-30T16:27:45.223Z,13.76
2022-09-30T16:30:15.269Z,13.53
2022-09-30T16:32:45.071Z,13.14
2022-09-30T16:35:23.998Z,12.78
2022-09-30T16:37:58.307Z,12.39
2022-09-30T16:40:29.336Z,12.15
2022-09-30T16:42:58.550Z,12.05
2022-09-30T16:45:27.211Z,11.90
2022-09-30T16:47:55.876Z,11.71
2022-09-30T16:50:30.824Z,11.65
2022-09-30T16:52:58.224Z,11.54
2022-09-30T16:55:28.259Z,11.44
2022-09-30T16:57:57.895Z,11.25
2022-09-30T17:00:26.326Z,11.09
2022-09-30T17:02:54.228Z,11.09
2022-09-30T17:05:23.791Z,11.02
2022-09-30T17:07:54.175Z,10.96
2022-09-30T17:10:24.654Z,10.84
2022-09-30T17:12:53.478Z,10.82
2022-09-30T17:15:21.549Z,10.65
2022-09-30T17:17:49.649Z,10.53
2022-09-30T17:20:17.172Z,10.41
2022-09-30T17:22:45.776Z,10.21
2022-09-30T17:25:13.562Z,10.11
2022-09-30T17:27:41.054Z,10.08
2022-09-30T17:30:10.899Z,10.07
2022-09-30T17:32:38.489Z,9.87
2022-09-30T17:35:08.320Z,9.65
2022-09-30T17:37:36.735Z,9.51
2022-09-30T17:40:25.616Z,9.51
2022-09-30T17:43:07.287Z,9.42
2022-09-30T17:45:36.672Z,9.32
2022-09-30T17:48:04.885Z,9.02
2022-09-30T17:50:32.301Z,9.14
2022-09-30T17:52:59.741Z,9.08
2022-09-30T17:55:27.698Z,8.98
2022-09-30T17:57:55.756Z,8.92
2022-09-30T18:00:23.318Z,8.67
2022-09-30T18:02:52.618Z,8.71
2022-09-30T18:05:20.062Z,8.55
2022-09-30T18:07:47.671Z,8.63
2022-09-30T18:10:15.111Z,8.57
2022-09-30T18:12:42.523Z,8.50
2022-09-30T18:15:11.052Z,8.36
2022-09-30T18:17:38.454Z,8.26
2022-09-30T18:20:08.765Z,8.17
2022-09-30T18:22:36.241Z,8.15
2022-09-30T18:25:22.579Z,8.00
2022-09-30T18:27:52.444Z,7.89
2022-09-30T18:30:21.542Z,7.85
2022-09-30T18:32:50.386Z,7.78
2022-09-30T18:35:20.955Z,7.74
2022-09-30T18:37:49.572Z,7.78
2022-09-30T18:40:18.140Z,7.68
2022-09-30T18:42:46.520Z,7.71
2022-09-30T18:45:14.263Z,7.70
2022-09-30T18:47:43.040Z,7.69
2022-09-30T18:50:11.775Z,7.66
2022-09-30T18:52:41.039Z,7.59
2022-09-30T18:55:09.648Z,7.57
2022-09-30T18:57:37.815Z,7.54
2022-09-30T19:00:06.145Z,7.48
2022-09-30T19:02:34.431Z,7.41
2022-09-30T19:05:01.867Z,7.35
2022-09-30T19:07:29.270Z,7.24
2022-09-30T19:09:58.040Z,7.22
2022-09-30T19:12:27.446Z,7.28
2022-09-30T19:14:55.239Z,7.23
2022-09-30T19:17:22.653Z,7.22
2022-09-30T19:19:50.705Z,7.19
2022-09-30T19:22:18.168Z,7.05
2022-09-30T19:24:45.570Z,7.05
2022-09-30T19:27:14.272Z,6.88
2022-09-30T19:29:41.728Z,6.84
2022-09-30T19:32:12.617Z,6.84
2022-09-30T19:34:40.081Z,6.79
2022-09-30T19:37:17.837Z,6.76
2022-09-30T19:39:48.726Z,6.76
2022-09-30T19:42:18.220Z,6.69
2022-09-30T19:44:45.612Z,6.62
2022-09-30T19:47:13.045Z,6.66
2022-09-30T19:49:40.510Z,6.65
2022-09-30T19:52:17.725Z,6.66
2022-09-30T19:54:48.778Z,6.61
2022-09-30T19:57:17.511Z,6.47
2022-09-30T19:59:45.002Z,6.30
2022-09-30T20:02:12.682Z,5.98
2022-09-30T20:04:42.079Z,6.09
2022-09-30T20:07:09.480Z,6.12
2022-09-30T20:09:36.914Z,6.13
2022-09-30T20:12:04.374Z,6.10
2022-09-30T20:14:50.754Z,6.19
2022-09-30T20:17:18.181Z,6.30
2022-09-30T20:20:05.839Z,6.30
2022-09-30T20:22:33.218Z,6.38
2022-09-30T20:25:00.973Z,6.63
2022-09-30T20:27:28.903Z,6.70
2022-09-30T20:29:57.639Z,6.75
2022-09-30T20:32:27.058Z,6.91
2022-09-30T20:34:54.456Z,6.98
2022-09-30T20:37:21.929Z,7.00
2022-09-30T20:39:49.327Z,6.94
2022-09-30T20:42:16.721Z,6.94
2022-09-30T20:44:45.145Z,6.88
2022-09-30T20:47:14.120Z,6.79
2022-09-30T20:49:41.512Z,6.71
2022-09-30T20:52:08.906Z,6.66
2022-09-30T20:54:36.633Z,6.64
2022-09-30T20:57:08.070Z,6.55
2022-09-30T20:59:35.704Z,6.56
2022-09-30T21:02:03.756Z,6.61
2022-09-30T21:04:33.800Z,6.59
2022-09-30T21:07:01.254Z,6.62
2022-09-30T21:09:28.643Z,6.60
2022-09-30T21:11:56.056Z,6.74
2022-09-30T21:14:23.432Z,6.83
2022-09-30T21:16:51.460Z,6.95
2022-09-30T21:19:19.138Z,6.97
2022-09-30T21:21:47.869Z,7.05
2022-09-30T21:24:16.189Z,7.13
2022-09-30T21:26:43.621Z,7.12
2022-09-30T21:29:11.061Z,7.25
2022-09-30T21:31:38.596Z,7.34
2022-09-30T21:34:06.377Z,7.33
2022-09-30T21:36:33.789Z,7.40
2022-09-30T21:39:03.306Z,7.47
2022-09-30T21:41:33.083Z,7.52
2022-09-30T21:44:01.258Z,7.65
2022-09-30T21:46:29.373Z,7.62
2022-09-30T21:49:05.740Z,7.63
2022-09-30T21:51:34.334Z,7.62
2022-09-30T21:54:03.426Z,7.71
2022-09-30T21:56:31.068Z,7.71
2022-09-30T21:58:58.720Z,7.68
2022-09-30T22:01:26.161Z,7.70
2022-09-30T22:03:53.589Z,7.69
2022-09-30T22:06:20.994Z,7.72
2022-09-30T22:08:48.745Z,7.79
2022-09-30T22:11:19.810Z,7.71
2022-09-30T22:13:47.812Z,7.81
2022-09-30T22:16:16.407Z,7.80
2022-09-30T22:18:44.211Z,7.85
2022-09-30T22:21:14.224Z,7.86
2022-09-30T22:23:43.035Z,7.90
2022-09-30T22:26:11.844Z,7.96
2022-09-30T22:28:40.840Z,7.99
2022-09-30T22:31:13.055Z,8.04
2022-09-30T22:33:58.513Z,8.08
2022-09-30T22:36:43.649Z,8.07
2022-09-30T22:39:11.507Z,8.08
2022-09-30T22:41:39.103Z,8.10
2022-09-30T22:44:08.646Z,8.09
2022-09-30T22:46:36.943Z,8.07
2022-09-30T22:49:04.507Z,8.03
2022-09-30T22:51:33.276Z,8.07
2022-09-30T22:54:01.367Z,8.15
2022-09-30T22:56:28.918Z,8.16
2022-09-30T22:58:56.654Z,8.19
2022-09-30T23:01:25.359Z,8.28
2022-09-30T23:03:53.882Z,8.28
2022-09-30T23:06:22.687Z,8.25
2022-09-30T23:08:50.528Z,8.27
2022-09-30T23:11:19.499Z,8.29
2022-09-30T23:13:47.487Z,8.33
2022-09-30T23:16:15.883Z,8.30
2022-09-30T23:18:46.190Z,8.38
2022-09-30T23:21:16.007Z,8.39
2022-09-30T23:23:43.636Z,8.42
2022-09-30T23:26:13.722Z,8.44
2022-09-30T23:28:41.673Z,8.42
2022-09-30T23:31:10.748Z,8.44
2022-09-30T23:33:39.511Z,8.46
2022-09-30T23:36:08.405Z,8.47
2022-09-30T23:38:35.839Z,8.53
2022-09-30T23:41:03.296Z,8.48
2022-09-30T23:43:32.347Z,8.46
2022-09-30T23:45:59.812Z,8.53
2022-09-30T23:48:28.017Z,8.53
2022-09-30T23:50:55.471Z,8.58
2022-09-30T23:53:24.703Z,8.54
2022-09-30T23:55:56.033Z,8.60
2022-09-30T23:58:23.738Z,8.54
